Fulda, Germany

9:55 PM CET on December 26, 2014 (GMT +0100)
Fulda | Change Station
CLOSE
Current Station
Personal Weather Station
Location: Grossenlueder-Bimbach, HESSEN
Elevation: 853 ft
Nearby Weather Stations

Elev 853 ft 50.57 °N, 9.57 °E | Updated 3 seconds ago

Scattered Clouds
Scattered Clouds
26.4 °F
Feels Like 26 °F
N
0.0
Wind Variable Wind from SSE
Gusts 2.0 mph

Today
High -- | Low -- °F
--% Chance of Precip.
Yesterday
High -- | Low -- °F
Precip. -- in
8:21 AM 4:22 PM
Waxing Crescent, 29% visible
Pressure 30.24 in
Visibility 6.2 miles
Clouds Few 400 ft
Scattered Clouds 4700 ft
Windchill 26 °F
Dew Point 25 °F
Humidity 95%
Rainfall 0.02 in
Snow Depth Not available.
UV 0.0 out of 12
Pollen Not available.
Air Quality Not available.
Flu Activity Not available.
METAR EDDF 262050Z 15001KT 9999 FEW004 SCT047 00/M00 Q1024 NOSIG

More Conditions Fewer Conditions

Pressure 30.24 in
Visibility 6.2 miles
Clouds Few 400 ft
Scattered Clouds 4700 ft
Windchill 26 °F
Dew Point 25 °F
Humidity 95%
Rainfall 0.02 in
Snow Depth Not available.
UV 0.0 out of 12
Pollen Not available.
Air Quality Not available.
Flu Activity Not available.
METAR EDDF 262050Z 15001KT 9999 FEW004 SCT047 00/M00 Q1024 NOSIG

More Conditions Fewer Conditions

10-Day Weather Forecast

Almanac

Astronomy

Dec. 26, 2014 Rise Set
Actual Time
Civil Twilight
Nautical Twilight
Astronomical Twilight
Moon
Length of Visible Light
Length of Day
Tomorrow will be .
, % of the Moon is Illuminated

Today's Extremes

Country Highs Country Lows

Community

WunderPhotos

Upload Photos

1,780,700 photos uploaded!

WunderBlogs® & News

Nearby

Air Quality

  Air Quality AQ Index Pollutant
Not available.

Snow Depth

Station Depth Elevation

Earthquake Activity

City Distance Mag. Time & Date
Minimum magnitude displayed is 2.5.

Coastal Water Temperatures

Place Temperature

Nearby Weather Stations